Time;durP1;ratioP1;P1;durP2;ratioP2;P2;SDS_P1;SDS_P2;PMS_P1;PMS_P2;Temp;Humidity;BMP_temperature;BMP_pressure;BME280_temperature;BME280_humidity;BME280_pressure;Samples;Min_cycle;Max_cycle;Signal;HPM_P1;HPM_P2
2022/12/21 00:01:53;;;;;;;0.40;0.40;;;14.70;82.40;;;;;;5016437;28;20253;-66
2022/12/21 00:04:42;;;;;;;0.40;0.40;;;14.80;82.40;;;;;;5014848;28;20598;-68
2022/12/21 00:07:31;;;;;;;0.40;0.40;;;14.70;82.30;;;;;;5015062;28;20238;-67
2022/12/21 00:10:19;;;;;;;0.40;0.40;;;14.70;82.30;;;;;;5014920;28;20714;-68
2022/12/21 00:13:07;;;;;;;0.40;0.40;;;14.70;82.40;;;;;;5015903;28;20203;-66
2022/12/21 00:16:02;;;;;;;0.40;0.40;;;14.60;82.20;;;;;;5015699;28;20195;-68
2022/12/21 00:18:50;;;;;;;0.40;0.40;;;14.60;82.30;;;;;;5015246;28;20826;-67
2022/12/21 00:21:38;;;;;;;0.40;0.40;;;14.70;82.40;;;;;;5015274;28;20205;-67
2022/12/21 00:24:27;;;;;;;0.40;0.40;;;14.60;82.40;;;;;;5015094;28;20215;-67
2022/12/21 00:27:15;;;;;;;0.40;0.40;;;14.60;82.40;;;;;;5014965;28;20227;-68
2022/12/21 00:30:04;;;;;;;0.40;0.40;;;14.60;82.40;;;;;;5014853;28;20281;-68
2022/12/21 00:32:54;;;;;;;0.40;0.40;;;14.50;82.40;;;;;;5015264;28;20203;-68
2022/12/21 00:35:47;;;;;;;0.40;0.40;;;14.50;82.50;;;;;;5013863;28;20191;-68
2022/12/21 00:38:36;;;;;;;0.77;0.77;;;14.50;82.50;;;;;;5014842;28;20222;-67
2022/12/21 00:41:26;;;;;;;0.40;0.40;;;14.60;82.70;;;;;;5015784;28;20207;-67
2022/12/21 00:44:14;;;;;;;0.40;0.40;;;14.50;82.60;;;;;;5015325;28;20198;-67
2022/12/21 00:47:02;;;;;;;0.67;0.67;;;14.50;82.70;;;;;;5016392;28;20246;-68
2022/12/21 00:49:52;;;;;;;0.40;0.40;;;14.50;82.60;;;;;;5014495;28;20285;-68
2022/12/21 00:52:40;;;;;;;0.40;0.40;;;14.50;82.70;;;;;;5014690;28;20303;-66
2022/12/21 00:55:28;;;;;;;0.40;0.40;;;14.50;82.70;;;;;;5015181;28;20203;-67
2022/12/21 00:58:16;;;;;;;0.40;0.40;;;14.50;82.60;;;;;;5014809;28;20222;-67
2022/12/21 01:01:06;;;;;;;0.40;0.40;;;14.50;82.80;;;;;;5014058;28;20199;-67
2022/12/21 01:03:55;;;;;;;0.40;0.40;;;14.50;82.60;;;;;;5015158;28;20276;-69
2022/12/21 01:06:45;;;;;;;0.47;0.47;;;14.50;82.50;;;;;;5015233;28;20214;-67
2022/12/21 01:09:33;;;;;;;0.60;0.60;;;14.50;82.50;;;;;;5013843;28;20242;-67
2022/12/21 01:12:21;;;;;;;0.40;0.40;;;14.50;82.40;;;;;;5015330;28;20337;-68
2022/12/21 01:15:10;;;;;;;0.40;0.40;;;14.60;82.40;;;;;;5014197;28;20203;-67
2022/12/21 01:17:58;;;;;;;0.40;0.40;;;14.60;82.50;;;;;;5014959;28;20219;-68
2022/12/21 01:20:48;;;;;;;0.40;0.40;;;14.60;82.30;;;;;;5014491;28;20203;-67
2022/12/21 01:23:37;;;;;;;0.50;0.50;;;14.60;82.30;;;;;;5015020;28;20209;-66
2022/12/21 01:26:25;;;;;;;0.40;0.40;;;14.60;82.20;;;;;;5014323;28;20219;-67
2022/12/21 01:29:14;;;;;;;0.40;0.40;;;14.60;82.90;;;;;;5013876;28;20202;-67
2022/12/21 01:32:02;;;;;;;0.40;0.40;;;14.50;82.20;;;;;;5015205;28;20199;-67
2022/12/21 01:34:50;;;;;;;0.40;0.40;;;14.50;82.20;;;;;;5014509;28;20626;-66
2022/12/21 01:37:38;;;;;;;0.40;0.40;;;14.50;82.20;;;;;;5014884;28;20250;-67
2022/12/21 01:40:31;;;;;;;0.40;0.40;;;14.60;82.40;;;;;;5014835;28;20286;-68
2022/12/21 01:43:49;;;;;;;0.40;0.40;;;14.50;82.30;;;;;;5015200;28;20286;-67
2022/12/21 01:46:40;;;;;;;0.40;0.40;;;14.50;90.70;;;;;;5002897;28;20305;-66
2022/12/21 01:49:31;;;;;;;7.00;5.35;;;14.50;82.60;;;;;;5017312;28;20198;-66
2022/12/21 01:52:20;;;;;;;0.40;0.40;;;14.20;82.20;;;;;;5017176;28;20234;-66
2022/12/21 01:55:08;;;;;;;0.40;0.40;;;14.40;82.50;;;;;;5018483;28;20282;-67
2022/12/21 01:58:00;;;;;;;0.40;0.40;;;14.50;82.60;;;;;;5017717;28;20695;-67
2022/12/21 02:00:48;;;;;;;0.55;0.55;;;14.50;82.70;;;;;;5017221;28;20288;-68
2022/12/21 02:03:40;;;;;;;0.40;0.40;;;14.50;82.70;;;;;;5018401;28;20284;-67
2022/12/21 02:06:33;;;;;;;0.50;0.50;;;14.50;82.70;;;;;;5012090;28;20219;-69
2022/12/21 02:09:21;;;;;;;0.40;0.40;;;14.50;82.80;;;;;;5015757;28;20394;-68
2022/12/21 02:12:14;;;;;;;0.40;0.40;;;14.50;82.80;;;;;;5016136;28;20230;-67
2022/12/21 02:15:04;;;;;;;0.40;0.40;;;14.50;82.70;;;;;;5016400;28;20606;-68
2022/12/21 02:18:04;;;;;;;0.40;0.40;;;14.50;82.70;;;;;;5015474;28;20228;-67
2022/12/21 02:21:15;;;;;;;0.40;0.40;;;14.50;82.60;;;;;;5016348;28;20281;-68
2022/12/21 02:24:33;;;;;;;0.40;0.40;;;14.50;82.60;;;;;;5016037;28;20281;-66
2022/12/21 02:27:49;;;;;;;0.40;0.40;;;14.50;82.70;;;;;;5015707;28;20360;-67
2022/12/21 02:31:05;;;;;;;0.40;0.40;;;14.50;82.50;;;;;;5015477;28;20234;-67
2022/12/21 02:34:03;;;;;;;0.40;0.40;;;14.50;82.40;;;;;;5015757;28;20719;-68
2022/12/21 02:36:59;;;;;;;0.40;0.40;;;14.50;82.40;;;;;;5015870;28;20242;-68
2022/12/21 02:39:55;;;;;;;0.40;0.40;;;14.50;82.50;;;;;;5015219;28;20203;-67
2022/12/21 02:46:02;;;;;;;0.40;0.40;;;14.50;82.50;;;;;;5015663;28;20773;-67
2022/12/21 02:48:55;;;;;;;0.40;0.40;;;14.50;82.30;;;;;;5016225;28;20363;-67
2022/12/21 02:51:48;;;;;;;1.10;1.10;;;14.50;82.40;;;;;;5015439;28;20250;-68
2022/12/21 02:54:38;;;;;;;0.77;0.77;;;14.50;82.40;;;;;;5015507;28;20281;-67
2022/12/21 02:57:38;;;;;;;0.40;0.40;;;14.50;82.40;;;;;;5015227;28;20219;-66
2022/12/21 03:00:26;;;;;;;0.40;0.40;;;14.50;82.40;;;;;;5014842;28;20286;-67
2022/12/21 03:06:44;;;;;;;0.40;0.40;;;14.50;82.60;;;;;;5015456;28;20214;-67
2022/12/21 03:09:43;;;;;;;0.40;0.40;;;14.40;82.50;;;;;;5015385;28;20202;-68
2022/12/21 03:12:49;;;;;;;0.40;0.40;;;14.40;82.60;;;;;;5015366;28;20209;-66
2022/12/21 03:15:47;;;;;;;0.40;0.40;;;14.40;82.80;;;;;;5014622;28;20202;-68
2022/12/21 03:18:49;;;;;;;0.40;0.40;;;14.40;82.70;;;;;;5014638;28;20223;-67
2022/12/21 03:21:42;;;;;;;0.40;0.40;;;14.40;82.80;;;;;;5015004;28;20280;-67
2022/12/21 03:24:35;;;;;;;0.40;0.40;;;14.40;82.80;;;;;;5014884;28;20278;-68
2022/12/21 03:27:27;;;;;;;0.40;0.40;;;14.40;82.60;;;;;;5014977;28;20308;-68
2022/12/21 03:30:17;;;;;;;0.40;0.40;;;14.40;82.70;;;;;;5014461;28;20289;-67
2022/12/21 03:33:08;;;;;;;0.43;0.43;;;14.40;82.70;;;;;;5015035;28;20199;-69
2022/12/21 03:36:02;;;;;;;0.50;0.50;;;14.40;82.80;;;;;;5014496;28;20199;-66
2022/12/21 03:38:52;;;;;;;1.50;1.50;;;14.30;82.80;;;;;;5014678;28;20209;-66
2022/12/21 03:41:46;;;;;;;0.40;0.40;;;14.40;83.00;;;;;;5014795;28;20588;-66
2022/12/21 03:44:40;;;;;;;0.40;0.40;;;14.40;82.90;;;;;;5014449;28;20301;-68
2022/12/21 03:47:34;;;;;;;0.40;0.40;;;14.40;83.00;;;;;;5014298;28;20730;-66
2022/12/21 03:50:25;;;;;;;0.40;0.40;;;14.40;82.90;;;;;;5014602;28;20206;-67
2022/12/21 03:53:24;;;;;;;1.02;1.02;;;14.40;83.00;;;;;;5014686;28;20678;-67
2022/12/21 03:56:20;;;;;;;0.40;0.40;;;14.40;82.80;;;;;;5014067;28;20754;-67
2022/12/21 03:59:12;;;;;;;0.40;0.40;;;14.40;82.80;;;;;;5014348;28;20667;-67
2022/12/21 04:02:08;;;;;;;0.40;0.40;;;14.40;82.80;;;;;;5014369;28;20203;-66
2022/12/21 04:05:01;;;;;;;0.40;0.40;;;14.40;82.80;;;;;;5013492;28;20199;-66
2022/12/21 04:07:51;;;;;;;0.40;0.40;;;14.40;82.70;;;;;;5015116;28;20952;-67
2022/12/21 04:10:41;;;;;;;0.40;0.40;;;14.40;82.80;;;;;;5014155;28;20210;-68
2022/12/21 04:13:28;;;;;;;0.40;0.40;;;14.40;82.90;;;;;;5013775;28;20602;-67
2022/12/21 04:16:16;;;;;;;0.40;0.40;;;14.40;82.90;;;;;;5014375;28;20205;-68
2022/12/21 04:28:06;;;;;;;0.40;0.40;;;14.30;83.00;;;;;;5014698;28;20262;-68
2022/12/21 04:28:28;;;;;;;0.40;0.40;;;14.40;83.00;;;;;;5013823;28;20296;-66
2022/12/21 04:31:36;;;;;;;0.40;0.40;;;14.40;83.00;;;;;;5014120;28;20202;-66
2022/12/21 04:34:25;;;;;;;0.40;0.40;;;14.40;83.00;;;;;;5014676;28;20207;-67
2022/12/21 04:40:18;;;;;;;0.40;0.40;;;14.30;83.00;;;;;;5014199;28;20281;-68
2022/12/21 04:43:06;;;;;;;0.40;0.40;;;14.40;83.00;;;;;;5014082;28;20234;-68
2022/12/21 04:46:01;;;;;;;0.40;0.40;;;14.40;83.00;;;;;;5013898;28;20631;-68
2022/12/21 04:48:49;;;;;;;0.50;0.50;;;14.40;83.00;;;;;;5012139;28;20246;-66
2022/12/21 04:51:38;;;;;;;0.63;0.63;;;14.40;83.90;;;;;;5013714;28;20209;-65
2022/12/21 04:54:25;;;;;;;0.50;0.50;;;14.30;83.00;;;;;;5014246;28;20262;-67
2022/12/21 04:57:14;;;;;;;0.40;0.40;;;14.40;83.40;;;;;;5013757;28;20621;-67
2022/12/21 05:00:02;;;;;;;0.40;0.40;;;14.40;83.10;;;;;;5013018;28;20291;-67
2022/12/21 05:02:51;;;;;;;0.40;0.40;;;14.30;83.10;;;;;;5014137;28;20214;-67
2022/12/21 05:05:40;;;;;;;0.40;0.40;;;14.30;83.20;;;;;;5013238;28;20205;-67
2022/12/21 05:08:28;;;;;;;1.03;1.03;;;14.30;83.20;;;;;;5014480;28;20226;-68
2022/12/21 05:11:19;;;;;;;0.40;0.40;;;14.30;83.10;;;;;;5013199;28;20199;-72
2022/12/21 05:14:07;;;;;;;0.40;0.40;;;14.30;83.10;;;;;;5013841;28;20214;-67
2022/12/21 05:16:55;;;;;;;0.40;0.40;;;14.30;83.00;;;;;;5013885;28;20229;-68
2022/12/21 05:19:46;;;;;;;0.40;0.40;;;14.30;83.10;;;;;;5013179;28;20505;-68
2022/12/21 05:22:34;;;;;;;0.40;0.40;;;14.30;83.10;;;;;;5017071;28;20250;-67
2022/12/21 05:25:22;;;;;;;0.40;0.40;;;14.30;83.20;;;;;;5017363;28;20229;-68
2022/12/21 05:28:10;;;;;;;0.40;0.40;;;14.30;83.40;;;;;;5017956;28;20687;-69
2022/12/21 05:30:58;;;;;;;0.60;0.60;;;14.30;83.40;;;;;;5016714;28;20583;-68
2022/12/21 05:33:46;;;;;;;0.40;0.40;;;14.40;83.70;;;;;;5017631;28;20260;-67
2022/12/21 05:36:36;;;;;;;0.40;0.40;;;14.30;83.70;;;;;;5016533;28;20199;-68
2022/12/21 05:39:24;;;;;;;0.40;0.40;;;14.30;83.40;;;;;;5017165;28;20198;-68
2022/12/21 05:42:12;;;;;;;0.40;0.40;;;14.40;83.50;;;;;;5017501;28;20281;-68
2022/12/21 05:45:00;;;;;;;0.40;0.40;;;14.40;83.50;;;;;;5016690;28;20281;-68
2022/12/21 05:47:48;;;;;;;0.40;0.40;;;14.40;83.40;;;;;;5017168;28;20297;-69
2022/12/21 05:50:38;;;;;;;1.40;1.40;;;14.40;83.20;;;;;;5016800;28;20213;-68
2022/12/21 05:53:28;;;;;;;0.60;0.60;;;14.50;83.20;;;;;;5017373;28;20301;-68
2022/12/21 05:56:16;;;;;;;0.40;0.40;;;14.60;83.30;;;;;;5016423;28;20676;-69
2022/12/21 05:59:04;;;;;;;0.40;0.40;;;14.60;83.30;;;;;;5016987;28;20282;-69
2022/12/21 06:01:52;;;;;;;2.10;2.00;;;14.10;82.70;;;;;;5016210;28;20211;-69
2022/12/21 06:04:40;;;;;;;0.40;0.40;;;14.60;83.20;;;;;;5017003;28;20274;-70
2022/12/21 06:07:28;;;;;;;0.40;0.40;;;14.60;83.10;;;;;;5016296;28;20230;-70
2022/12/21 06:10:17;;;;;;;0.40;0.40;;;14.60;83.00;;;;;;5016265;28;20203;-70
2022/12/21 06:13:06;;;;;;;0.40;0.40;;;14.60;82.90;;;;;;5015142;28;20224;-67
2022/12/21 06:15:54;;;;;;;0.40;0.40;;;14.60;82.90;;;;;;5016398;28;20274;-68
2022/12/21 06:18:42;;;;;;;0.40;0.40;;;14.60;83.10;;;;;;5016580;28;20229;-68
2022/12/21 06:21:30;;;;;;;0.40;0.40;;;14.70;83.10;;;;;;5016107;28;20194;-69
2022/12/21 06:24:18;;;;;;;0.40;0.40;;;14.70;82.90;;;;;;5015827;28;20206;-69
2022/12/21 06:27:08;;;;;;;0.40;0.40;;;14.60;82.90;;;;;;5015656;28;20219;-68
2022/12/21 06:29:56;;;;;;;0.40;0.40;;;14.60;82.90;;;;;;5016526;28;20306;-68
2022/12/21 06:32:44;;;;;;;0.40;0.40;;;14.60;83.00;;;;;;5015330;28;20652;-68
2022/12/21 06:35:33;;;;;;;0.40;0.40;;;14.60;83.00;;;;;;5016128;28;20291;-68
2022/12/21 06:38:21;;;;;;;0.40;0.40;;;14.60;83.00;;;;;;5015486;28;20221;-70
2022/12/21 06:41:10;;;;;;;0.40;0.40;;;14.60;83.00;;;;;;5015363;28;20210;-69
2022/12/21 06:44:00;;;;;;;0.40;0.40;;;14.60;83.10;;;;;;5015765;28;20194;-68
2022/12/21 06:46:48;;;;;;;0.40;0.40;;;14.50;83.10;;;;;;5015655;28;20297;-68
2022/12/21 06:49:36;;;;;;;0.40;0.40;;;14.60;83.50;;;;;;5012368;28;20247;-65
2022/12/21 06:52:24;;;;;;;0.40;0.40;;;14.40;82.60;;;;;;5015418;28;20206;-66
2022/12/21 06:55:12;;;;;;;0.40;0.40;;;14.50;83.50;;;;;;5014960;28;20209;-65
2022/12/21 06:58:00;;;;;;;0.40;0.40;;;14.50;83.80;;;;;;5015378;28;20218;-67
2022/12/21 07:00:50;;;;;;;0.40;0.40;;;14.50;84.10;;;;;;5014781;28;20701;-67
2022/12/21 07:03:39;;;;;;;0.40;0.40;;;14.50;84.10;;;;;;5015623;28;20337;-66
2022/12/21 07:06:32;;;;;;;0.40;0.40;;;14.50;84.00;;;;;;5014990;28;20207;-67
2022/12/21 07:09:20;;;;;;;0.40;0.40;;;14.50;84.20;;;;;;5014767;28;20230;-67
2022/12/21 07:12:08;;;;;;;0.40;0.40;;;14.50;84.30;;;;;;5015007;28;20207;-68
2022/12/21 07:14:56;;;;;;;0.60;0.60;;;14.50;84.40;;;;;;5015710;28;20296;-67
2022/12/21 07:17:45;;;;;;;0.40;0.40;;;14.50;84.30;;;;;;5014521;28;20298;-67
2022/12/21 07:20:33;;;;;;;2.40;2.20;;;14.60;84.40;;;;;;5014843;28;20246;-67
2022/12/21 07:23:21;;;;;;;0.40;0.40;;;14.60;84.40;;;;;;5015237;28;20286;-67
2022/12/21 07:26:12;;;;;;;2.33;2.15;;;14.70;84.40;;;;;;5014459;28;20581;-67
2022/12/21 07:29:00;;;;;;;0.40;0.40;;;14.70;84.30;;;;;;5015300;28;20214;-67
2022/12/21 07:31:48;;;;;;;0.40;0.40;;;14.70;84.30;;;;;;5014350;28;20762;-67
2022/12/21 07:34:37;;;;;;;0.40;0.40;;;14.80;84.40;;;;;;5015368;28;20206;-67
2022/12/21 07:37:25;;;;;;;0.40;0.40;;;14.80;84.50;;;;;;5014178;28;20766;-68
2022/12/21 07:40:15;;;;;;;1.13;1.13;;;14.80;84.30;;;;;;5013933;28;20236;-66
2022/12/21 07:43:08;;;;;;;0.40;0.40;;;14.80;84.20;;;;;;5013392;28;20399;-67
2022/12/21 07:45:56;;;;;;;0.50;0.50;;;14.90;84.40;;;;;;5013860;28;20195;-67
2022/12/21 07:48:44;;;;;;;0.40;0.40;;;14.80;84.40;;;;;;5014723;28;20715;-67
2022/12/21 07:51:33;;;;;;;0.40;0.40;;;14.90;84.40;;;;;;5014341;28;20273;-66
2022/12/21 07:54:22;;;;;;;0.40;0.40;;;14.90;84.50;;;;;;5014554;28;20261;-66
2022/12/21 07:57:10;;;;;;;0.40;0.40;;;14.90;84.40;;;;;;5014353;28;20225;-67
2022/12/21 07:59:58;;;;;;;0.40;0.40;;;14.90;84.50;;;;;;5014769;28;20191;-67
2022/12/21 08:02:46;;;;;;;0.40;0.40;;;14.90;84.50;;;;;;5013506;28;20302;-66
2022/12/21 08:05:35;;;;;;;0.40;0.40;;;14.90;84.50;;;;;;5013636;28;20234;-66
2022/12/21 08:08:24;;;;;;;0.40;0.40;;;14.80;84.60;;;;;;5014292;28;20222;-66
2022/12/21 08:11:14;;;;;;;0.40;0.40;;;14.80;84.50;;;;;;5013685;28;20265;-67
2022/12/21 08:14:02;;;;;;;0.40;0.40;;;14.80;84.60;;;;;;5013043;28;20213;-66
2022/12/21 08:16:51;;;;;;;0.40;0.40;;;14.80;84.70;;;;;;5013978;28;20233;-66
2022/12/21 08:19:39;;;;;;;0.40;0.40;;;14.70;84.70;;;;;;5014100;28;20201;-67
2022/12/21 08:22:27;;;;;;;0.40;0.40;;;14.80;84.80;;;;;;5013591;28;20203;-67
2022/12/21 08:25:16;;;;;;;1.57;1.50;;;14.70;84.70;;;;;;5014248;28;20203;-67
2022/12/21 08:28:05;;;;;;;0.77;0.77;;;14.70;84.90;;;;;;5014063;28;20297;-68
2022/12/21 08:30:53;;;;;;;0.40;0.40;;;14.80;85.10;;;;;;5013755;28;20230;-67
2022/12/21 08:33:42;;;;;;;0.40;0.40;;;14.70;85.30;;;;;;5013815;28;20565;-67
2022/12/21 08:36:31;;;;;;;1.00;1.00;;;14.70;84.90;;;;;;5013666;28;20679;-66
2022/12/21 08:39:19;;;;;;;0.50;0.50;;;14.80;85.30;;;;;;5014254;28;20234;-67
2022/12/21 08:42:09;;;;;;;0.40;0.40;;;14.70;86.00;;;;;;5013349;28;20320;-65
2022/12/21 08:44:57;;;;;;;0.40;0.40;;;14.70;85.00;;;;;;5013481;28;20199;-68
2022/12/21 08:47:45;;;;;;;0.40;0.40;;;14.70;85.30;;;;;;5013315;28;20218;-68
2022/12/21 08:50:33;;;;;;;0.40;0.40;;;14.70;85.30;;;;;;5013359;28;20203;-67
2022/12/21 08:53:21;;;;;;;0.50;0.50;;;14.70;85.50;;;;;;5012695;28;20281;-68
2022/12/21 08:56:09;;;;;;;0.40;0.40;;;14.70;85.20;;;;;;5014380;28;20683;-68
2022/12/21 08:59:01;;;;;;;0.40;0.40;;;14.70;85.20;;;;;;5018376;28;20516;-66
2022/12/21 09:01:52;;;;;;;0.40;0.40;;;14.70;85.20;;;;;;5018326;28;20699;-66
2022/12/21 09:04:40;;;;;;;0.40;0.40;;;14.70;85.00;;;;;;5018079;28;20265;-68
2022/12/21 09:07:28;;;;;;;0.40;0.40;;;14.70;85.20;;;;;;5017450;28;20244;-67
2022/12/21 09:10:16;;;;;;;0.40;0.40;;;14.70;85.10;;;;;;5017979;28;20728;-66
2022/12/21 09:13:04;;;;;;;0.40;0.40;;;14.70;85.10;;;;;;5016184;28;20437;-67
2022/12/21 09:15:53;;;;;;;0.40;0.40;;;14.70;85.30;;;;;;5017442;28;20203;-67
2022/12/21 09:18:42;;;;;;;0.50;0.50;;;14.80;86.20;;;;;;5017684;28;20348;-69
2022/12/21 09:21:30;;;;;;;0.40;0.40;;;14.60;85.30;;;;;;5017102;28;20281;-68
2022/12/21 09:24:18;;;;;;;0.40;0.40;;;14.60;85.20;;;;;;5017347;28;20206;-67
2022/12/21 09:27:06;;;;;;;0.40;0.40;;;14.60;85.10;;;;;;5016830;28;20230;-67
2022/12/21 09:29:54;;;;;;;0.50;0.50;;;14.60;85.20;;;;;;5016928;28;20305;-68
2022/12/21 09:32:43;;;;;;;0.40;0.40;;;14.60;85.20;;;;;;5016663;28;20282;-67
2022/12/21 09:35:32;;;;;;;0.40;0.40;;;14.60;85.20;;;;;;5017364;28;20321;-66
2022/12/21 09:38:20;;;;;;;0.40;0.40;;;14.70;85.70;;;;;;5017271;28;20354;-70
2022/12/21 09:41:30;;;;;;;0.40;0.40;;;14.60;85.80;;;;;;5016519;28;20288;-67
2022/12/21 09:44:39;;;;;;;0.40;0.40;;;14.60;86.00;;;;;;5016890;28;20226;-67
2022/12/21 09:47:32;;;;;;;0.40;0.40;;;14.60;86.10;;;;;;5017055;28;20613;-67
2022/12/21 09:50:25;;;;;;;0.47;0.47;;;14.60;86.10;;;;;;5016405;28;20280;-69
2022/12/21 09:53:19;;;;;;;1.37;1.37;;;14.60;86.10;;;;;;5017045;28;20217;-67
2022/12/21 09:56:11;;;;;;;0.40;0.40;;;14.60;86.00;;;;;;5016709;28;20594;-67
2022/12/21 09:59:04;;;;;;;0.40;0.40;;;14.60;86.20;;;;;;5017169;28;20199;-67
2022/12/21 10:01:58;;;;;;;4.40;1.80;;;14.60;86.40;;;;;;5016622;28;20207;-67
2022/12/21 10:05:02;;;;;;;0.40;0.40;;;14.60;86.00;;;;;;5016994;28;20233;-67
2022/12/21 10:08:26;;;;;;;0.40;0.40;;;14.60;86.00;;;;;;5015920;28;20226;-67
2022/12/21 10:11:26;;;;;;;0.40;0.40;;;14.70;85.90;;;;;;5017032;28;20283;-66
2022/12/21 10:14:26;;;;;;;0.40;0.40;;;14.70;86.20;;;;;;5017137;28;20625;-66
2022/12/21 10:17:30;;;;;;;0.40;0.40;;;14.70;86.00;;;;;;5016317;28;20218;-67
2022/12/21 10:20:44;;;;;;;0.40;0.40;;;14.70;85.80;;;;;;5016859;28;20194;-67
2022/12/21 10:23:39;;;;;;;0.40;0.40;;;14.70;85.90;;;;;;5016610;28;20245;-67
2022/12/21 10:26:28;;;;;;;0.40;0.40;;;14.70;85.30;;;;;;5015228;28;20289;-66
2022/12/21 10:29:20;;;;;;;0.50;0.50;;;14.70;85.90;;;;;;5016257;28;20233;-68
2022/12/21 10:32:13;;;;;;;0.40;0.40;;;14.70;85.70;;;;;;5016005;28;20214;-66
2022/12/21 10:35:17;;;;;;;0.63;0.63;;;14.70;86.00;;;;;;5015755;28;20206;-66
2022/12/21 10:38:13;;;;;;;0.40;0.40;;;14.70;85.80;;;;;;5015886;28;20345;-66
2022/12/21 10:41:05;;;;;;;0.40;0.40;;;14.70;85.70;;;;;;5015852;28;20751;-67
2022/12/21 10:43:55;;;;;;;0.50;0.50;;;14.60;85.80;;;;;;5016275;28;20286;-67
2022/12/21 10:46:43;;;;;;;0.40;0.40;;;14.60;85.70;;;;;;5015421;28;20309;-68
2022/12/21 10:49:37;;;;;;;0.40;0.40;;;14.70;85.90;;;;;;5015743;28;20227;-67
2022/12/21 10:52:38;;;;;;;0.40;0.40;;;14.60;85.70;;;;;;5015338;28;20230;-66
2022/12/21 10:55:32;;;;;;;0.40;0.40;;;14.60;85.80;;;;;;5015928;28;20206;-67
2022/12/21 10:58:26;;;;;;;0.40;0.40;;;14.60;85.80;;;;;;5015141;28;20305;-67
2022/12/21 11:01:21;;;;;;;0.40;0.40;;;14.60;85.90;;;;;;5014372;28;20195;-66
2022/12/21 11:04:14;;;;;;;0.40;0.40;;;14.60;86.00;;;;;;5015690;28;20285;-67
2022/12/21 11:07:05;;;;;;;0.40;0.40;;;14.60;86.00;;;;;;5015933;28;20601;-67
2022/12/21 11:10:26;;;;;;;0.40;0.40;;;14.60;86.00;;;;;;5015967;28;20226;-67
2022/12/21 11:13:41;;;;;;;0.50;0.50;;;14.60;86.10;;;;;;5015416;28;20198;-67
2022/12/21 11:16:31;;;;;;;0.40;0.40;;;14.70;86.20;;;;;;5016199;28;20761;-67
2022/12/21 11:19:22;;;;;;;0.40;0.40;;;14.70;86.10;;;;;;5015202;28;20473;-67
2022/12/21 11:22:14;;;;;;;0.40;0.40;;;14.70;85.90;;;;;;5015701;28;20203;-67
2022/12/21 11:25:26;;;;;;;0.40;0.40;;;14.80;86.00;;;;;;5016205;28;20559;-67
2022/12/21 11:28:23;;;;;;;0.40;0.40;;;14.80;85.80;;;;;;5015346;28;20226;-69
2022/12/21 11:31:12;;;;;;;0.40;0.40;;;14.90;85.80;;;;;;5013781;28;20313;-67
2022/12/21 11:34:00;;;;;;;0.40;0.40;;;14.90;85.60;;;;;;5016320;28;20213;-69
2022/12/21 11:36:56;;;;;;;2.87;2.60;;;14.90;85.60;;;;;;5016493;28;20717;-67
2022/12/21 11:39:45;;;;;;;0.40;0.40;;;15.00;86.10;;;;;;5015821;28;20200;-68
2022/12/21 11:42:33;;;;;;;2.60;2.40;;;15.00;85.70;;;;;;5014998;28;20284;-68
2022/12/21 11:45:23;;;;;;;0.40;0.40;;;15.00;85.70;;;;;;5015445;28;20211;-68
2022/12/21 11:48:28;;;;;;;0.40;0.40;;;15.00;85.50;;;;;;5015504;28;20310;-68
2022/12/21 11:51:22;;;;;;;0.90;0.90;;;15.00;85.50;;;;;;5015126;28;20246;-71
2022/12/21 11:54:23;;;;;;;0.40;0.40;;;15.00;85.40;;;;;;5015684;28;20280;-68
2022/12/21 11:57:25;;;;;;;0.40;0.40;;;15.00;85.40;;;;;;5014824;28;20260;-68
2022/12/21 12:00:18;;;;;;;0.40;0.40;;;15.00;85.70;;;;;;5014738;28;20248;-67
2022/12/21 12:03:39;;;;;;;0.40;0.40;;;15.00;85.60;;;;;;5014268;28;20199;-68
2022/12/21 12:06:48;;;;;;;0.60;0.60;;;15.00;84.90;;;;;;5014614;28;20218;-67
2022/12/21 12:10:04;;;;;;;0.40;0.40;;;15.00;85.40;;;;;;5013977;28;20198;-67
2022/12/21 12:13:00;;;;;;;0.40;0.40;;;14.90;85.30;;;;;;5013759;28;20282;-68
2022/12/21 12:15:56;;;;;;;0.40;0.40;;;14.90;85.30;;;;;;5014121;28;20583;-68
2022/12/21 12:18:56;;;;;;;4.95;4.75;;;14.90;85.30;;;;;;5013588;28;20230;-67
2022/12/21 12:22:05;;;;;;;0.40;0.40;;;14.90;85.40;;;;;;5014095;28;20198;-67
2022/12/21 12:25:08;;;;;;;0.40;0.40;;;14.90;85.40;;;;;;5013453;28;20281;-69
2022/12/21 12:28:15;;;;;;;1.70;1.70;;;14.90;85.60;;;;;;5013268;28;20218;-69
2022/12/21 12:31:14;;;;;;;0.40;0.40;;;14.90;85.90;;;;;;5012738;28;20589;-67
2022/12/21 12:34:20;;;;;;;0.40;0.40;;;14.90;85.80;;;;;;5014137;28;20210;-68
2022/12/21 12:37:25;;;;;;;0.40;0.40;;;14.80;86.80;;;;;;5014066;28;20321;-67
2022/12/21 12:40:24;;;;;;;0.40;0.40;;;14.80;86.10;;;;;;5013599;28;20394;-67
2022/12/21 12:43:20;;;;;;;0.40;0.40;;;14.80;86.00;;;;;;5015121;28;20201;-68
2022/12/21 12:46:16;;;;;;;0.40;0.40;;;14.80;85.90;;;;;;5014049;28;20211;-67
2022/12/21 12:49:16;;;;;;;0.40;0.40;;;14.80;86.20;;;;;;5013876;28;20698;-69
2022/12/21 12:52:14;;;;;;;0.40;0.40;;;14.80;86.00;;;;;;5013117;28;20315;-67
2022/12/21 12:55:15;;;;;;;2.10;2.00;;;14.80;86.20;;;;;;5013150;28;20318;-68
2022/12/21 12:58:10;;;;;;;0.40;0.40;;;14.80;86.00;;;;;;5013093;28;20222;-68
2022/12/21 13:01:03;;;;;;;0.40;0.40;;;14.80;86.00;;;;;;5013433;28;20742;-68
2022/12/21 13:04:11;;;;;;;0.40;0.40;;;14.80;86.00;;;;;;5013913;28;20203;-68
2022/12/21 13:07:09;;;;;;;0.40;0.40;;;14.80;86.00;;;;;;5013455;28;20745;-68
2022/12/21 13:10:05;;;;;;;0.40;0.40;;;14.80;86.00;;;;;;5012082;28;20577;-68
2022/12/21 13:13:01;;;;;;;0.40;0.40;;;14.70;85.90;;;;;;5013382;28;20201;-68
2022/12/21 13:15:54;;;;;;;0.50;0.50;;;14.80;86.10;;;;;;5014343;28;20735;-68
2022/12/21 13:18:47;;;;;;;0.40;0.40;;;14.70;86.20;;;;;;5013138;28;20448;-67
2022/12/21 13:21:40;;;;;;;0.40;0.40;;;14.70;86.30;;;;;;5013525;28;20234;-67
2022/12/21 13:24:41;;;;;;;0.40;0.40;;;14.70;86.00;;;;;;5014106;28;20742;-68
2022/12/21 13:27:34;;;;;;;0.40;0.40;;;14.70;86.10;;;;;;5013138;28;20231;-71
2022/12/21 13:30:23;;;;;;;0.40;0.40;;;14.70;86.10;;;;;;5013430;28;20683;-68
2022/12/21 13:33:15;;;;;;;0.40;0.40;;;14.70;86.10;;;;;;5013486;28;20226;-67
2022/12/21 13:36:08;;;;;;;1.47;1.47;;;14.70;86.10;;;;;;5013038;28;20282;-68
2022/12/21 13:39:05;;;;;;;0.40;0.40;;;14.70;86.10;;;;;;5013206;28;20195;-67
2022/12/21 13:41:57;;;;;;;0.50;0.50;;;14.70;86.10;;;;;;5014878;28;20706;-68
2022/12/21 13:44:50;;;;;;;0.40;0.40;;;14.70;86.40;;;;;;5017948;28;20205;-68
2022/12/21 13:47:39;;;;;;;0.40;0.40;;;14.70;86.50;;;;;;5017402;28;20464;-68
2022/12/21 13:50:39;;;;;;;0.40;0.40;;;14.60;86.20;;;;;;5017240;28;20679;-68
2022/12/21 13:53:38;;;;;;;0.40;0.40;;;14.70;86.50;;;;;;5017589;28;20250;-70
2022/12/21 13:56:37;;;;;;;0.77;0.77;;;14.70;86.50;;;;;;5017756;28;20205;-69
2022/12/21 13:59:40;;;;;;;0.40;0.40;;;14.70;86.60;;;;;;5017632;28;20199;-66
2022/12/21 14:02:45;;;;;;;0.40;0.40;;;14.80;86.70;;;;;;5017265;28;20282;-69
2022/12/21 14:05:42;;;;;;;0.40;0.40;;;14.70;86.60;;;;;;5017772;28;20199;-70
2022/12/21 14:08:53;;;;;;;0.40;0.40;;;14.40;86.20;;;;;;5016617;28;20337;-69
2022/12/21 14:11:58;;;;;;;0.40;0.40;;;14.70;86.40;;;;;;5015679;28;20218;-69
2022/12/21 14:15:27;;;;;;;0.40;0.40;;;14.80;86.70;;;;;;5017137;28;20585;-68
2022/12/21 14:18:17;;;;;;;2.35;2.25;;;14.80;86.60;;;;;;5016738;28;20226;-67
2022/12/21 14:21:09;;;;;;;0.40;0.40;;;14.80;86.80;;;;;;5016841;28;20282;-68
2022/12/21 14:23:59;;;;;;;0.40;0.40;;;14.80;86.30;;;;;;5016372;28;20199;-68
2022/12/21 14:26:51;;;;;;;0.40;0.40;;;14.80;86.50;;;;;;5017111;28;20219;-68
2022/12/21 14:29:41;;;;;;;0.40;0.40;;;14.80;86.40;;;;;;5016566;28;20205;-68
2022/12/21 14:32:30;;;;;;;0.50;0.50;;;14.80;86.30;;;;;;5016146;28;20299;-68
2022/12/21 14:35:30;;;;;;;0.40;0.40;;;14.80;87.10;;;;;;5015103;28;20705;-68
2022/12/21 14:38:27;;;;;;;0.40;0.40;;;14.80;86.50;;;;;;5015898;28;20219;-68
2022/12/21 14:41:20;;;;;;;0.40;0.40;;;14.80;86.70;;;;;;5014548;28;20305;-68
2022/12/21 14:44:28;;;;;;;0.40;0.40;;;14.60;86.60;;;;;;5016376;28;20213;-67
2022/12/21 14:47:23;;;;;;;0.40;0.40;;;14.80;86.50;;;;;;5017241;28;20306;-68
2022/12/21 14:50:47;;;;;;;0.40;0.40;;;14.80;86.40;;;;;;5015930;28;20294;-68
2022/12/21 14:53:59;;;;;;;0.40;0.40;;;14.80;86.40;;;;;;5014502;28;20205;-69
2022/12/21 14:57:18;;;;;;;0.40;0.40;;;14.70;86.40;;;;;;5015739;28;20308;-68
2022/12/21 15:00:22;;;;;;;0.40;0.40;;;14.70;86.40;;;;;;5013642;28;20249;-67
2022/12/21 15:03:18;;;;;;;0.40;0.40;;;14.80;86.60;;;;;;5016312;28;20329;-68
2022/12/21 15:06:06;;;;;;;0.40;0.40;;;14.70;86.80;;;;;;5015786;28;20209;-67
2022/12/21 15:09:22;;;;;;;0.60;0.60;;;14.80;86.70;;;;;;5015083;28;20633;-67
2022/12/21 15:12:21;;;;;;;0.40;0.40;;;14.70;86.90;;;;;;5015495;28;20301;-68
2022/12/21 15:15:34;;;;;;;1.07;1.07;;;14.70;86.90;;;;;;5015790;28;20198;-68
2022/12/21 15:18:52;;;;;;;0.50;0.50;;;14.70;87.00;;;;;;5014985;28;20226;-69
2022/12/21 15:21:42;;;;;;;1.75;1.75;;;14.70;87.10;;;;;;5015506;28;20226;-68